createdAt,value
2022-12-22T00:02:00.975Z,43.39
2022-12-22T00:04:49.767Z,43.63
2022-12-22T00:07:36.814Z,43.75
2022-12-22T00:10:24.476Z,43.61
2022-12-22T00:13:11.199Z,43.77
2022-12-22T00:15:58.328Z,43.66
2022-12-22T00:18:47.410Z,43.85
2022-12-22T00:21:36.150Z,43.77
2022-12-22T00:24:23.362Z,43.83
2022-12-22T00:27:10.363Z,44.02
2022-12-22T00:30:00.885Z,43.81
2022-12-22T00:32:53.931Z,43.87
2022-12-22T00:35:44.474Z,43.77
2022-12-22T00:38:40.463Z,43.72
2022-12-22T00:41:27.280Z,44.11
2022-12-22T00:44:14.211Z,44.01
2022-12-22T00:47:05.052Z,44.35
2022-12-22T00:49:54.337Z,44.02
2022-12-22T00:52:43.292Z,44.01
2022-12-22T00:55:51.609Z,43.72
2022-12-22T00:58:40.220Z,43.85
2022-12-22T01:01:29.494Z,44.07
2022-12-22T01:04:16.881Z,44.13
2022-12-22T01:07:04.440Z,44.11
2022-12-22T01:09:51.645Z,43.92
2022-12-22T01:12:44.082Z,44.39
2022-12-22T01:15:35.017Z,44.13
2022-12-22T01:18:22.396Z,44.07
2022-12-22T01:21:10.089Z,43.67
2022-12-22T01:23:57.631Z,44.25
2022-12-22T01:26:44.709Z,44.29
2022-12-22T01:29:33.708Z,44.32
2022-12-22T01:32:20.427Z,44.56
2022-12-22T01:35:07.492Z,44.50
2022-12-22T01:37:54.765Z,44.00
2022-12-22T01:40:44.544Z,44.26
2022-12-22T01:43:41.505Z,44.19
2022-12-22T01:46:46.397Z,44.26
2022-12-22T01:49:39.313Z,44.14
2022-12-22T01:52:29.865Z,44.23
2022-12-22T01:55:24.770Z,44.50
2022-12-22T01:58:11.857Z,44.61
2022-12-22T02:01:00.304Z,44.70
2022-12-22T02:03:48.907Z,44.74
2022-12-22T02:06:47.572Z,44.90
2022-12-22T02:09:57.162Z,44.77
2022-12-22T02:12:58.158Z,44.84
2022-12-22T02:15:55.209Z,44.89
2022-12-22T02:18:51.253Z,44.70
2022-12-22T02:21:44.309Z,44.55
2022-12-22T02:24:50.478Z,44.88
2022-12-22T02:27:39.985Z,44.83
2022-12-22T02:30:29.548Z,44.49
2022-12-22T02:33:16.140Z,44.69
2022-12-22T02:36:16.073Z,45.19
2022-12-22T02:39:16.081Z,45.11
2022-12-22T02:42:15.664Z,44.64
2022-12-22T02:45:15.931Z,44.80
2022-12-22T02:48:09.540Z,44.68
2022-12-22T02:51:05.932Z,44.82
2022-12-22T02:53:54.171Z,44.72
2022-12-22T02:56:41.884Z,45.06
2022-12-22T02:59:28.921Z,45.19
2022-12-22T03:02:17.853Z,44.97
2022-12-22T03:05:04.968Z,45.28
2022-12-22T03:07:51.945Z,45.25
2022-12-22T03:10:39.113Z,45.12
2022-12-22T03:13:25.876Z,45.12
2022-12-22T03:16:12.856Z,45.26
2022-12-22T03:19:01.936Z,44.77
2022-12-22T03:21:48.904Z,44.97
2022-12-22T03:24:36.026Z,45.12
2022-12-22T03:27:06.809Z,45.16
2022-12-22T03:29:37.073Z,44.90
2022-12-22T03:32:07.781Z,45.05
2022-12-22T03:34:39.230Z,45.13
2022-12-22T03:37:08.906Z,45.02
2022-12-22T03:39:39.361Z,44.77
2022-12-22T03:42:26.501Z,45.08
2022-12-22T03:45:13.555Z,44.79
2022-12-22T03:47:43.852Z,45.10
2022-12-22T03:50:17.434Z,45.18
2022-12-22T03:52:47.582Z,45.12
2022-12-22T03:55:18.189Z,45.45
2022-12-22T03:57:48.498Z,45.06
2022-12-22T04:00:20.163Z,45.13
2022-12-22T04:02:50.794Z,45.22
2022-12-22T04:05:22.977Z,45.35
2022-12-22T04:07:53.567Z,45.05
2022-12-22T04:10:40.202Z,45.11
2022-12-22T04:13:10.041Z,45.33
2022-12-22T04:15:40.344Z,45.18
2022-12-22T04:18:10.865Z,45.40
2022-12-22T04:20:43.893Z,45.09
2022-12-22T04:23:14.078Z,44.81
2022-12-22T04:25:43.998Z,44.88
2022-12-22T04:28:14.422Z,44.77
2022-12-22T04:30:44.657Z,45.08
2022-12-22T04:33:15.138Z,44.84
2022-12-22T04:35:47.118Z,45.40
2022-12-22T04:38:17.424Z,45.04
2022-12-22T04:40:47.762Z,45.04
2022-12-22T04:43:17.598Z,45.10
2022-12-22T04:45:48.224Z,45.10
2022-12-22T04:48:18.625Z,45.44
2022-12-22T04:50:54.053Z,45.11
2022-12-22T04:53:25.566Z,45.05
2022-12-22T04:56:01.135Z,45.07
2022-12-22T04:58:31.857Z,45.33
2022-12-22T05:01:12.119Z,45.24
2022-12-22T05:03:42.772Z,45.13
2022-12-22T05:06:14.670Z,45.29
2022-12-22T05:08:45.349Z,45.44
2022-12-22T05:11:15.197Z,45.42
2022-12-22T05:13:45.226Z,45.15
2022-12-22T05:16:17.965Z,45.09
2022-12-22T05:18:48.866Z,45.23
2022-12-22T05:21:23.544Z,44.94
2022-12-22T05:23:54.412Z,45.17
2022-12-22T05:26:24.688Z,45.24
2022-12-22T05:28:54.786Z,45.06
2022-12-22T05:31:28.010Z,45.41
2022-12-22T05:33:58.763Z,44.95
2022-12-22T05:36:30.015Z,45.34
2022-12-22T05:39:00.608Z,45.02
2022-12-22T05:41:31.001Z,45.10
2022-12-22T05:44:01.151Z,44.92
2022-12-22T05:46:31.151Z,45.30
2022-12-22T05:49:01.233Z,45.44
2022-12-22T05:51:33.178Z,45.27
2022-12-22T05:54:03.626Z,45.38
2022-12-22T05:56:33.282Z,45.16
2022-12-22T05:59:03.676Z,45.43
2022-12-22T06:01:34.161Z,45.27
2022-12-22T06:04:03.967Z,45.29
2022-12-22T06:06:36.545Z,45.40
2022-12-22T06:09:07.208Z,45.37
2022-12-22T06:11:37.548Z,45.56
2022-12-22T06:14:07.259Z,45.44
2022-12-22T06:16:37.627Z,45.59
2022-12-22T06:19:08.180Z,45.81
2022-12-22T06:21:40.636Z,46.06
2022-12-22T06:24:11.821Z,46.55
2022-12-22T06:26:42.221Z,46.52
2022-12-22T06:29:12.244Z,46.58
2022-12-22T06:31:42.187Z,46.43
2022-12-22T06:34:13.349Z,46.20
2022-12-22T06:36:45.666Z,46.42
2022-12-22T06:39:16.845Z,46.45
2022-12-22T06:42:03.753Z,46.51
2022-12-22T06:44:34.863Z,46.32
2022-12-22T06:47:04.677Z,46.34
2022-12-22T06:49:34.673Z,46.27
2022-12-22T06:52:09.429Z,46.20
2022-12-22T06:54:39.681Z,45.91
2022-12-22T06:57:10.021Z,45.67
2022-12-22T06:59:40.358Z,45.53
2022-12-22T07:02:13.386Z,45.40
2022-12-22T07:04:43.896Z,45.60
2022-12-22T07:07:15.814Z,45.62
2022-12-22T07:09:46.178Z,45.05
2022-12-22T07:12:17.196Z,44.61
2022-12-22T07:14:47.596Z,44.87
2022-12-22T07:17:18.003Z,44.55
2022-12-22T07:19:48.468Z,44.23
2022-12-22T07:22:25.742Z,43.92
2022-12-22T07:25:00.110Z,44.35
2022-12-22T07:27:30.408Z,44.28
2022-12-22T07:30:00.694Z,43.67
2022-12-22T07:32:30.913Z,43.78
2022-12-22T07:35:05.161Z,43.50
2022-12-22T07:37:38.350Z,43.95
2022-12-22T07:40:10.753Z,43.53
2022-12-22T07:42:47.468Z,42.94
2022-12-22T07:45:19.660Z,43.06
2022-12-22T07:47:50.788Z,42.83
2022-12-22T07:50:28.247Z,42.56
2022-12-22T07:53:02.672Z,42.99
2022-12-22T07:55:39.385Z,42.60
2022-12-22T07:58:10.142Z,42.43
2022-12-22T08:00:40.720Z,42.57
2022-12-22T08:03:12.205Z,42.12
2022-12-22T08:05:42.181Z,42.20
2022-12-22T08:08:14.182Z,42.30
2022-12-22T08:10:44.126Z,42.48
2022-12-22T08:13:14.511Z,42.16
2022-12-22T08:15:44.749Z,41.66
2022-12-22T08:18:14.728Z,42.29
2022-12-22T08:20:51.801Z,41.56
2022-12-22T08:23:23.406Z,42.16
2022-12-22T08:26:00.984Z,41.81
2022-12-22T08:28:34.842Z,42.31
2022-12-22T08:31:06.710Z,42.46
2022-12-22T08:33:37.386Z,42.25
2022-12-22T08:36:09.772Z,41.74
2022-12-22T08:38:44.769Z,41.74
2022-12-22T08:41:38.835Z,41.78
2022-12-22T08:44:09.537Z,41.21
2022-12-22T08:46:39.920Z,39.83
2022-12-22T08:49:09.953Z,39.00
2022-12-22T08:51:40.100Z,39.03
2022-12-22T08:54:12.637Z,37.80
2022-12-22T08:56:43.077Z,38.18
2022-12-22T08:59:13.393Z,37.92
2022-12-22T09:01:48.384Z,37.61
2022-12-22T09:04:22.039Z,37.24
2022-12-22T09:06:55.649Z,36.86
2022-12-22T09:09:28.255Z,36.38
2022-12-22T09:11:58.439Z,36.24
2022-12-22T09:14:28.688Z,36.23
2022-12-22T09:16:58.541Z,36.56
2022-12-22T09:19:28.888Z,35.97
2022-12-22T09:21:59.188Z,36.10
2022-12-22T09:24:31.079Z,35.52
2022-12-22T09:27:00.984Z,36.01
2022-12-22T09:29:31.049Z,36.16
2022-12-22T09:32:01.350Z,35.45
2022-12-22T09:34:31.703Z,36.26
2022-12-22T09:37:06.954Z,36.33
2022-12-22T09:39:43.502Z,36.53
2022-12-22T09:42:20.315Z,36.05
2022-12-22T09:44:53.309Z,35.96
2022-12-22T09:47:33.858Z,35.68
2022-12-22T09:50:06.037Z,35.37
2022-12-22T09:52:48.946Z,35.07
2022-12-22T09:55:42.342Z,35.52
2022-12-22T09:58:29.458Z,35.55
2022-12-22T10:01:16.962Z,35.54
2022-12-22T10:04:00.464Z,35.32
2022-12-22T10:06:43.674Z,35.17
2022-12-22T10:12:21.193Z,35.17
2022-12-22T10:14:53.508Z,35.28
2022-12-22T10:17:28.652Z,35.26
2022-12-22T10:20:25.711Z,35.39
2022-12-22T10:23:00.675Z,35.37
2022-12-22T10:26:00.582Z,35.40
2022-12-22T10:28:35.856Z,35.42
2022-12-22T10:31:21.190Z,35.26
2022-12-22T10:33:54.779Z,35.29
2022-12-22T10:36:28.807Z,35.40
2022-12-22T10:39:04.150Z,35.74
2022-12-22T10:41:38.326Z,35.92
2022-12-22T10:44:21.589Z,35.92
2022-12-22T10:46:55.231Z,35.95
2022-12-22T10:49:28.695Z,35.88
2022-12-22T10:52:13.924Z,36.17
2022-12-22T10:54:45.301Z,36.08
2022-12-22T10:57:32.025Z,35.96
2022-12-22T11:00:23.599Z,36.35
2022-12-22T11:02:55.418Z,36.32
2022-12-22T11:05:26.528Z,36.37
2022-12-22T11:08:01.343Z,36.28
2022-12-22T11:10:44.647Z,36.45
2022-12-22T11:13:54.752Z,36.48
2022-12-22T11:16:36.927Z,36.69
2022-12-22T11:19:34.562Z,36.55
2022-12-22T11:22:21.340Z,36.39
2022-12-22T11:25:09.733Z,36.36
2022-12-22T11:27:53.600Z,36.56
2022-12-22T11:30:35.578Z,36.25
2022-12-22T11:33:36.415Z,36.68
2022-12-22T11:36:14.430Z,36.84
2022-12-22T11:38:56.289Z,36.58
2022-12-22T11:41:47.023Z,36.52
2022-12-22T11:44:39.840Z,36.91
2022-12-22T11:47:38.526Z,36.64
2022-12-22T11:51:00.992Z,36.58
2022-12-22T11:54:35.589Z,36.77
2022-12-22T11:57:21.973Z,36.95
2022-12-22T12:00:03.853Z,37.12
2022-12-22T12:03:23.796Z,36.94
2022-12-22T12:06:42.980Z,36.85
2022-12-22T12:09:37.803Z,36.97
2022-12-22T12:12:19.677Z,36.84
2022-12-22T12:15:09.091Z,36.74
2022-12-22T12:18:00.911Z,36.67
2022-12-22T12:20:54.317Z,36.77
2022-12-22T12:23:52.649Z,36.85
2022-12-22T12:26:30.949Z,36.70
2022-12-22T12:29:18.771Z,36.94
2022-12-22T12:31:58.229Z,36.74
2022-12-22T12:34:31.985Z,36.70
2022-12-22T12:37:10.253Z,36.57
2022-12-22T12:40:01.713Z,36.80
2022-12-22T12:42:37.746Z,36.70
2022-12-22T12:45:41.551Z,36.65
2022-12-22T12:48:41.245Z,36.62
2022-12-22T12:51:51.985Z,36.66
2022-12-22T12:54:41.140Z,36.62
2022-12-22T12:57:31.267Z,36.62
2022-12-22T13:00:02.869Z,36.77
2022-12-22T13:02:57.576Z,36.54
2022-12-22T13:05:38.653Z,36.69
2022-12-22T13:08:25.083Z,36.64
2022-12-22T13:12:13.296Z,36.74
2022-12-22T13:15:02.268Z,36.69
2022-12-22T13:17:42.703Z,36.77
2022-12-22T13:20:25.746Z,36.74
2022-12-22T13:22:58.986Z,36.76
2022-12-22T13:25:42.363Z,36.60
2022-12-22T13:28:21.084Z,36.82
2022-12-22T13:30:54.753Z,36.69
2022-12-22T13:33:32.540Z,36.82
2022-12-22T13:36:05.418Z,36.73
2022-12-22T13:38:38.061Z,36.82
2022-12-22T13:41:26.574Z,36.50
2022-12-22T13:44:06.397Z,36.83
2022-12-22T13:46:38.851Z,36.91
2022-12-22T13:49:30.214Z,36.79
2022-12-22T13:52:06.902Z,36.65
2022-12-22T13:54:40.808Z,36.79
2022-12-22T13:57:21.154Z,36.53
2022-12-22T13:59:55.573Z,36.66
2022-12-22T14:02:25.820Z,36.78
2022-12-22T14:05:13.115Z,36.67
2022-12-22T14:07:43.561Z,36.73
2022-12-22T14:10:14.132Z,36.83
2022-12-22T14:12:48.099Z,36.93
2022-12-22T14:15:23.162Z,36.88
2022-12-22T14:17:53.830Z,36.61
2022-12-22T14:20:29.830Z,36.66
2022-12-22T14:23:07.809Z,36.66
2022-12-22T14:25:42.739Z,36.42
2022-12-22T14:28:21.638Z,36.57
2022-12-22T14:30:58.010Z,36.53
2022-12-22T14:33:35.126Z,36.49
2022-12-22T14:36:22.577Z,36.64
2022-12-22T14:38:55.200Z,36.70
2022-12-22T14:41:47.188Z,36.44
2022-12-22T14:44:22.193Z,36.52
2022-12-22T14:47:18.573Z,36.50
2022-12-22T14:49:54.226Z,36.20
2022-12-22T14:52:38.177Z,36.33
2022-12-22T14:55:26.564Z,36.52
2022-12-22T14:58:00.777Z,36.58
2022-12-22T15:00:35.708Z,36.44
2022-12-22T15:03:32.987Z,36.56
2022-12-22T15:06:35.964Z,36.56
2022-12-22T15:12:21.856Z,36.76
2022-12-22T15:14:52.387Z,36.48
2022-12-22T15:17:28.435Z,36.39
2022-12-22T15:20:02.564Z,36.52
2022-12-22T15:22:33.265Z,36.67
2022-12-22T15:25:03.061Z,36.50
2022-12-22T15:27:33.440Z,36.64
2022-12-22T15:30:03.905Z,36.48
2022-12-22T15:32:37.825Z,36.55
2022-12-22T15:35:20.568Z,36.57
2022-12-22T15:37:50.985Z,36.50
2022-12-22T15:40:24.544Z,36.48
2022-12-22T15:42:55.424Z,36.59
2022-12-22T15:45:26.125Z,36.57
2022-12-22T15:47:58.061Z,36.73
2022-12-22T15:50:39.134Z,36.74
2022-12-22T15:53:13.736Z,36.65
2022-12-22T15:55:48.233Z,36.67
2022-12-22T15:58:22.393Z,36.64
2022-12-22T16:00:52.978Z,36.52
2022-12-22T16:03:23.055Z,36.57
2022-12-22T16:05:55.639Z,36.46
2022-12-22T16:08:33.615Z,36.48
2022-12-22T16:11:03.802Z,36.53
2022-12-22T16:13:34.423Z,36.65
2022-12-22T16:16:04.629Z,36.57
2022-12-22T16:18:35.400Z,36.58
2022-12-22T16:21:15.299Z,36.66
2022-12-22T16:23:48.704Z,36.66
2022-12-22T16:26:22.338Z,36.69
2022-12-22T16:28:52.939Z,36.71
2022-12-22T16:31:26.645Z,36.64
2022-12-22T16:33:56.932Z,36.63
2022-12-22T16:36:28.872Z,36.59
2022-12-22T16:38:59.339Z,36.68
2022-12-22T16:41:29.562Z,36.55
2022-12-22T16:46:49.631Z,36.70
2022-12-22T16:49:26.806Z,36.67
2022-12-22T16:51:59.555Z,36.71
2022-12-22T16:54:29.127Z,36.45
2022-12-22T16:56:59.455Z,36.57
2022-12-22T16:59:29.936Z,36.66
2022-12-22T17:02:01.211Z,36.64
2022-12-22T17:04:34.147Z,36.63
2022-12-22T17:07:06.146Z,36.87
2022-12-22T17:09:44.882Z,36.58
2022-12-22T17:12:21.046Z,36.65
2022-12-22T17:14:53.205Z,36.72
2022-12-22T17:17:31.875Z,36.87
2022-12-22T17:20:04.055Z,36.78
2022-12-22T17:22:37.438Z,36.66
2022-12-22T17:25:10.246Z,36.81
2022-12-22T17:27:40.501Z,36.65
2022-12-22T17:30:20.057Z,36.71
2022-12-22T17:32:50.547Z,36.93
2022-12-22T17:35:25.266Z,36.78
2022-12-22T17:37:57.979Z,37.09
2022-12-22T17:40:31.270Z,36.75
2022-12-22T17:43:01.569Z,36.83
2022-12-22T17:45:31.949Z,36.84
2022-12-22T17:48:02.350Z,36.79
2022-12-22T17:50:33.030Z,36.90
2022-12-22T17:53:06.369Z,36.73
2022-12-22T17:58:27.527Z,36.89
2022-12-22T18:00:57.198Z,36.95
2022-12-22T18:03:27.216Z,37.06
2022-12-22T18:05:57.333Z,36.73
2022-12-22T18:08:29.623Z,37.25
2022-12-22T18:10:59.983Z,36.96
2022-12-22T18:13:29.884Z,36.74
2022-12-22T18:16:00.268Z,37.03
2022-12-22T18:18:30.864Z,37.16
2022-12-22T18:21:05.746Z,36.97
2022-12-22T18:23:43.226Z,36.93
2022-12-22T18:26:25.216Z,36.79
2022-12-22T18:28:56.322Z,36.90
2022-12-22T18:31:27.686Z,37.09
2022-12-22T18:33:57.609Z,36.89
2022-12-22T18:36:34.158Z,37.00
2022-12-22T18:39:09.477Z,37.09
2022-12-22T18:41:43.693Z,37.21
2022-12-22T18:44:19.035Z,37.02
2022-12-22T18:46:50.595Z,37.09
2022-12-22T18:49:22.150Z,37.08
2022-12-22T18:51:52.589Z,37.21
2022-12-22T18:54:39.423Z,37.14
2022-12-22T18:57:17.127Z,37.47
2022-12-22T18:59:48.468Z,37.48
2022-12-22T19:02:25.578Z,37.15
2022-12-22T19:04:56.928Z,37.14
2022-12-22T19:07:28.683Z,37.20
2022-12-22T19:10:01.030Z,37.13
2022-12-22T19:12:31.417Z,37.21
2022-12-22T19:15:08.052Z,36.88
2022-12-22T19:17:38.749Z,37.43
2022-12-22T19:20:17.149Z,37.41
2022-12-22T19:22:47.744Z,37.16
2022-12-22T19:25:23.529Z,37.47
2022-12-22T19:27:57.539Z,37.33
2022-12-22T19:30:31.358Z,36.98
2022-12-22T19:33:05.700Z,37.15
2022-12-22T19:35:36.175Z,36.90
2022-12-22T19:38:20.217Z,37.01
2022-12-22T19:40:54.604Z,37.21
2022-12-22T19:43:25.014Z,37.22
2022-12-22T19:45:56.790Z,37.27
2022-12-22T19:48:29.482Z,37.22
2022-12-22T19:50:59.755Z,37.15
2022-12-22T19:53:30.071Z,37.12
2022-12-22T19:56:02.860Z,37.20
2022-12-22T19:58:40.615Z,37.28
2022-12-22T20:01:13.290Z,37.07
2022-12-22T20:03:43.649Z,37.19
2022-12-22T20:06:14.163Z,37.14
2022-12-22T20:08:43.841Z,37.10
2022-12-22T20:11:21.142Z,37.42
2022-12-22T20:13:51.857Z,37.21
2022-12-22T20:16:22.247Z,37.00
2022-12-22T20:18:51.977Z,37.23
2022-12-22T20:21:30.050Z,37.29
2022-12-22T20:24:03.134Z,37.12
2022-12-22T20:26:35.706Z,37.13
2022-12-22T20:29:06.274Z,37.10
2022-12-22T20:31:36.672Z,37.35
2022-12-22T20:34:07.304Z,37.30
2022-12-22T20:36:37.265Z,37.10
2022-12-22T20:39:16.645Z,37.35
2022-12-22T20:41:53.455Z,37.14
2022-12-22T20:44:25.423Z,37.11
2022-12-22T20:46:55.347Z,37.50
2022-12-22T20:49:25.131Z,37.14
2022-12-22T20:51:55.590Z,37.19
2022-12-22T20:54:25.324Z,37.27
2022-12-22T20:56:57.357Z,37.06
2022-12-22T20:59:28.087Z,36.99
2022-12-22T21:01:59.212Z,37.28
2022-12-22T21:04:29.084Z,37.13
2022-12-22T21:07:00.451Z,37.03
2022-12-22T21:09:30.733Z,37.22
2022-12-22T21:12:02.478Z,37.14
2022-12-22T21:14:32.152Z,37.28
2022-12-22T21:17:03.012Z,37.28
2022-12-22T21:19:32.873Z,37.10
2022-12-22T21:22:03.494Z,37.26
2022-12-22T21:24:33.155Z,37.26
2022-12-22T21:27:05.757Z,36.98
2022-12-22T21:29:36.199Z,37.35
2022-12-22T21:32:06.909Z,37.08
2022-12-22T21:34:36.725Z,37.16
2022-12-22T21:37:07.325Z,37.50
2022-12-22T21:39:42.776Z,37.33
2022-12-22T21:42:18.431Z,36.99
2022-12-22T21:44:48.864Z,36.95
2022-12-22T21:47:22.030Z,36.83
2022-12-22T21:49:52.325Z,37.36
2022-12-22T21:52:22.710Z,36.93
2022-12-22T21:54:53.021Z,37.24
2022-12-22T21:57:26.880Z,36.82
2022-12-22T21:59:57.303Z,36.84
2022-12-22T22:02:27.511Z,36.71
2022-12-22T22:04:58.254Z,37.11
2022-12-22T22:07:28.659Z,36.98
2022-12-22T22:09:58.979Z,37.02
2022-12-22T22:12:38.402Z,37.22
2022-12-22T22:15:10.839Z,36.72
2022-12-22T22:17:41.969Z,36.88
2022-12-22T22:20:16.802Z,36.93
2022-12-22T22:22:47.809Z,36.95
2022-12-22T22:25:19.871Z,37.11
2022-12-22T22:27:53.244Z,37.04
2022-12-22T22:30:25.722Z,36.70
2022-12-22T22:32:57.959Z,37.00
2022-12-22T22:35:29.923Z,36.82
2022-12-22T22:38:00.154Z,37.06
2022-12-22T22:40:29.928Z,36.59
2022-12-22T22:43:02.278Z,36.80
2022-12-22T22:45:32.786Z,37.06
2022-12-22T22:48:07.772Z,36.80
2022-12-22T22:50:43.675Z,36.84
2022-12-22T22:53:13.937Z,36.52
2022-12-22T22:55:44.274Z,36.74
2022-12-22T22:58:16.448Z,36.55
2022-12-22T23:00:46.931Z,36.94
2022-12-22T23:03:16.911Z,36.75
2022-12-22T23:05:47.383Z,36.48
2022-12-22T23:08:18.193Z,36.80
2022-12-22T23:10:51.670Z,36.74
2022-12-22T23:13:22.853Z,36.42
2022-12-22T23:15:57.423Z,36.76
2022-12-22T23:18:28.133Z,36.79
2022-12-22T23:21:00.760Z,36.65
2022-12-22T23:23:32.422Z,36.93
2022-12-22T23:26:03.031Z,36.81
2022-12-22T23:28:34.964Z,36.55
2022-12-22T23:31:05.660Z,36.87
2022-12-22T23:33:36.120Z,36.55
2022-12-22T23:36:07.612Z,36.49
2022-12-22T23:38:38.338Z,36.70
2022-12-22T23:41:12.065Z,36.56
2022-12-22T23:43:44.076Z,36.31
2022-12-22T23:46:18.427Z,36.39
2022-12-22T23:48:54.605Z,36.46
2022-12-22T23:51:27.096Z,36.84
2022-12-22T23:53:58.268Z,36.47
2022-12-22T23:56:28.520Z,36.82
2022-12-22T23:59:00.655Z,36.59
